Time;durP1;ratioP1;P1;durP2;ratioP2;P2;SDS_P1;SDS_P2;PMS_P1;PMS_P2;Temp;Humidity;BMP_temperature;BMP_pressure;BME280_temperature;BME280_humidity;BME280_pressure;Samples;Min_cycle;Max_cycle;Signal;HPM_P1;HPM_P2
2022/12/05 00:01:18;;;;;;;0.10;0.10;;;4.60;99.90;;;;;;5065457;28;20221;-80
2022/12/05 00:03:44;;;;;;;0.10;0.10;;;4.60;99.90;;;;;;5066541;28;20595;-80
2022/12/05 00:06:10;;;;;;;0.00;0.00;;;4.60;99.90;;;;;;5066142;28;20213;-80
2022/12/05 00:08:35;;;;;;;0.10;0.10;;;4.40;99.90;;;;;;5066381;28;20271;-80
2022/12/05 00:11:01;;;;;;;0.10;0.10;;;4.40;99.90;;;;;;5065329;28;20219;-80
2022/12/05 00:13:26;;;;;;;0.00;0.00;;;4.40;99.90;;;;;;5065615;28;20227;-80
2022/12/05 00:15:52;;;;;;;0.10;0.10;;;4.40;99.90;;;;;;5065585;28;20332;-79
2022/12/05 00:18:17;;;;;;;0.10;0.10;;;4.50;99.90;;;;;;5065118;28;20196;-80
2022/12/05 00:20:47;;;;;;;0.10;0.10;;;4.50;99.90;;;;;;5064525;28;20189;-80
2022/12/05 00:23:13;;;;;;;0.10;0.10;;;4.50;99.90;;;;;;5065609;28;20187;-80
2022/12/05 00:25:39;;;;;;;0.10;0.10;;;4.50;99.90;;;;;;5065576;28;20747;-80
2022/12/05 00:28:05;;;;;;;0.10;0.10;;;4.50;99.90;;;;;;5064077;28;20192;-80
2022/12/05 00:30:30;;;;;;;0.10;0.10;;;4.50;99.90;;;;;;5062507;28;20191;-79
2022/12/05 00:32:57;;;;;;;0.10;0.10;;;4.40;99.90;;;;;;5063575;28;20194;-79
2022/12/05 00:35:23;;;;;;;0.10;0.10;;;4.40;99.90;;;;;;5063597;28;20213;-80
2022/12/05 00:37:48;;;;;;;0.10;0.10;;;4.50;99.90;;;;;;5069025;28;20231;-79
2022/12/05 00:40:14;;;;;;;0.10;0.10;;;4.40;99.90;;;;;;5068791;28;20187;-80
2022/12/05 00:42:40;;;;;;;0.10;0.10;;;4.40;99.90;;;;;;5085387;28;20207;-79
2022/12/05 00:45:06;;;;;;;0.10;0.10;;;4.40;99.90;;;;;;5067082;28;20223;-80
2022/12/05 00:47:35;;;;;;;0.00;0.00;;;4.40;99.90;;;;;;5067290;28;20193;-80
2022/12/05 00:50:01;;;;;;;0.10;0.10;;;4.50;99.90;;;;;;5069460;28;20672;-79
2022/12/05 00:52:26;;;;;;;0.10;0.10;;;4.50;99.90;;;;;;5071558;28;20193;-80
2022/12/05 00:54:52;;;;;;;0.10;0.10;;;4.60;99.90;;;;;;5069854;28;20242;-79
2022/12/05 00:57:17;;;;;;;0.10;0.10;;;4.60;99.90;;;;;;5071111;28;20216;-80
2022/12/05 00:59:43;;;;;;;0.10;0.10;;;4.60;99.90;;;;;;5069140;28;20192;-80
2022/12/05 01:02:09;;;;;;;0.10;0.10;;;4.60;99.90;;;;;;5068851;28;20188;-80
2022/12/05 01:04:34;;;;;;;0.10;0.10;;;4.60;99.90;;;;;;5069689;28;20237;-80
2022/12/05 01:07:00;;;;;;;0.10;0.10;;;4.60;99.90;;;;;;5068439;28;20209;-80
2022/12/05 01:09:26;;;;;;;0.10;0.10;;;4.60;99.90;;;;;;5068639;28;20196;-80
2022/12/05 01:11:52;;;;;;;0.10;0.10;;;4.60;99.90;;;;;;5069945;28;20185;-80
2022/12/05 01:14:20;;;;;;;0.10;0.10;;;4.60;99.90;;;;;;5067564;28;20207;-80
2022/12/05 01:16:48;;;;;;;0.03;0.03;;;4.70;99.90;;;;;;5069247;28;20938;-80
2022/12/05 01:19:29;;;;;;;0.10;0.10;;;4.60;99.90;;;;;;5067535;28;20191;-79
2022/12/05 01:21:55;;;;;;;0.00;0.00;;;4.60;99.90;;;;;;5068638;28;20282;-79
2022/12/05 01:24:22;;;;;;;0.10;0.10;;;4.60;99.90;;;;;;5067475;28;20252;-79
2022/12/05 01:26:48;;;;;;;0.10;0.10;;;4.60;99.90;;;;;;5069215;28;20223;-80
2022/12/05 01:29:15;;;;;;;0.10;0.10;;;4.50;99.90;;;;;;5068635;28;20595;-80
2022/12/05 01:31:41;;;;;;;0.00;0.00;;;4.50;99.90;;;;;;5068848;28;20230;-80
2022/12/05 01:34:10;;;;;;;0.03;0.03;;;4.50;99.90;;;;;;5068459;28;20214;-80
2022/12/05 01:36:38;;;;;;;0.10;0.10;;;4.50;99.90;;;;;;5085606;28;20231;-80
2022/12/05 01:39:04;;;;;;;0.10;0.10;;;4.60;99.90;;;;;;5067980;28;20965;-80
2022/12/05 01:41:33;;;;;;;0.10;0.10;;;4.50;99.90;;;;;;5068673;28;20185;-80
2022/12/05 01:44:06;;;;;;;0.10;0.10;;;4.50;99.90;;;;;;5069873;28;20448;-80
2022/12/05 01:46:36;;;;;;;0.10;0.10;;;4.50;99.90;;;;;;5067455;28;20282;-80
2022/12/05 01:49:17;;;;;;;0.10;0.10;;;4.50;99.90;;;;;;5065352;28;20197;-80
2022/12/05 01:51:48;;;;;;;0.10;0.10;;;4.50;99.90;;;;;;5066336;28;20185;-80
2022/12/05 01:54:16;;;;;;;0.10;0.10;;;4.50;99.90;;;;;;5067274;28;20213;-79
2022/12/05 01:56:46;;;;;;;0.00;0.00;;;4.40;99.90;;;;;;5067979;28;20293;-80
2022/12/05 01:59:13;;;;;;;0.10;0.10;;;4.50;99.90;;;;;;5066140;28;20192;-80
2022/12/05 02:01:39;;;;;;;0.10;0.10;;;4.50;99.90;;;;;;5066806;28;20186;-80
2022/12/05 02:04:05;;;;;;;0.10;0.10;;;4.50;99.90;;;;;;5067130;28;20297;-79
2022/12/05 02:06:32;;;;;;;0.10;0.10;;;4.50;99.90;;;;;;5067262;28;20220;-79
2022/12/05 02:08:57;;;;;;;0.10;0.10;;;4.50;99.90;;;;;;5068428;28;20278;-80
2022/12/05 02:11:26;;;;;;;0.10;0.10;;;4.50;99.90;;;;;;5067785;28;21386;-80
2022/12/05 02:14:06;;;;;;;0.10;0.10;;;4.50;99.90;;;;;;5068117;28;20672;-80
2022/12/05 02:16:31;;;;;;;0.10;0.10;;;4.50;99.90;;;;;;5068607;28;20217;-80
2022/12/05 02:19:34;;;;;;;0.10;0.10;;;4.50;99.90;;;;;;5067974;28;20196;-80
2022/12/05 02:22:15;;;;;;;0.10;0.10;;;4.50;99.90;;;;;;5066803;28;20183;-80
2022/12/05 02:24:46;;;;;;;0.10;0.10;;;4.50;99.90;;;;;;5067422;28;20667;-80
2022/12/05 02:27:12;;;;;;;0.10;0.10;;;4.50;99.90;;;;;;5065949;28;20211;-80
2022/12/05 02:29:40;;;;;;;0.03;0.03;;;4.50;99.90;;;;;;5067618;28;20190;-80
2022/12/05 02:32:31;;;;;;;0.10;0.10;;;4.50;99.90;;;;;;5065545;28;20568;-80
2022/12/05 02:35:15;;;;;;;0.10;0.10;;;4.40;99.90;;;;;;5066595;28;20190;-80
2022/12/05 02:38:14;;;;;;;0.10;0.10;;;4.20;99.90;;;;;;5065426;28;20736;-80
2022/12/05 02:40:42;;;;;;;0.10;0.10;;;4.20;99.90;;;;;;5065897;28;20177;-78
2022/12/05 02:43:25;;;;;;;0.10;0.10;;;4.30;99.90;;;;;;5065633;28;20182;-80
2022/12/05 02:45:55;;;;;;;0.10;0.10;;;4.40;99.90;;;;;;5066209;28;20202;-80
2022/12/05 02:48:25;;;;;;;0.00;0.00;;;4.40;99.90;;;;;;5066818;28;20240;-79
2022/12/05 02:50:52;;;;;;;0.10;0.10;;;4.40;99.90;;;;;;5066104;28;20181;-80
2022/12/05 02:53:20;;;;;;;0.10;0.10;;;4.40;99.90;;;;;;5082612;28;20837;-80
2022/12/05 02:55:46;;;;;;;0.10;0.10;;;4.50;99.90;;;;;;5065058;28;20262;-79
2022/12/05 02:58:49;;;;;;;0.10;0.10;;;4.50;99.90;;;;;;5065091;28;20188;-80
2022/12/05 03:01:15;;;;;;;0.00;0.00;;;4.60;99.90;;;;;;5065622;28;20235;-79
2022/12/05 03:03:40;;;;;;;0.10;0.10;;;4.50;99.90;;;;;;5065777;28;20200;-79
2022/12/05 03:06:19;;;;;;;0.10;0.10;;;4.50;99.90;;;;;;5066309;28;20210;-80
2022/12/05 03:08:54;;;;;;;0.00;0.00;;;4.50;99.90;;;;;;5082753;28;20271;-80
2022/12/05 03:11:20;;;;;;;0.10;0.10;;;4.50;99.90;;;;;;5064828;28;20248;-80
2022/12/05 03:13:53;;;;;;;0.10;0.10;;;4.60;99.90;;;;;;5065725;28;20203;-80
2022/12/05 03:16:30;;;;;;;0.10;0.10;;;4.60;99.90;;;;;;5064971;28;20218;-80
2022/12/05 03:19:01;;;;;;;0.10;0.10;;;4.50;99.90;;;;;;5066848;28;20184;-80
2022/12/05 03:21:37;;;;;;;0.10;0.10;;;4.60;99.90;;;;;;5064749;28;20181;-80
2022/12/05 03:24:06;;;;;;;0.07;0.07;;;4.70;99.90;;;;;;5065187;28;20291;-80
2022/12/05 03:26:37;;;;;;;0.10;0.10;;;4.60;99.90;;;;;;5066416;28;20264;-80
2022/12/05 03:29:22;;;;;;;0.10;0.10;;;4.60;99.90;;;;;;5065110;28;20179;-80
2022/12/05 03:32:04;;;;;;;0.10;0.10;;;4.70;99.90;;;;;;5052312;28;21293;-80
2022/12/05 03:34:46;;;;;;;0.00;0.00;;;4.70;99.90;;;;;;5066350;28;20222;-79
2022/12/05 03:37:26;;;;;;;0.10;0.10;;;4.70;99.90;;;;;;5066195;28;20697;-80
2022/12/05 03:40:08;;;;;;;0.10;0.10;;;4.70;99.90;;;;;;5064885;28;20181;-80
2022/12/05 03:42:39;;;;;;;0.10;0.10;;;4.80;99.90;;;;;;5064843;28;20271;-80
2022/12/05 03:45:18;;;;;;;0.10;0.10;;;4.80;99.90;;;;;;5064092;28;20230;-80
2022/12/05 03:47:43;;;;;;;0.10;0.10;;;4.80;99.90;;;;;;5064998;28;20709;-80
2022/12/05 03:50:22;;;;;;;0.10;0.10;;;4.80;99.90;;;;;;5064870;28;20188;-79
2022/12/05 03:53:03;;;;;;;0.10;0.10;;;4.80;99.90;;;;;;5064909;28;20174;-80
2022/12/05 03:55:34;;;;;;;0.00;0.00;;;4.90;99.90;;;;;;5064795;28;20215;-79
2022/12/05 03:58:10;;;;;;;0.10;0.10;;;4.90;99.90;;;;;;5064071;28;20265;-80
2022/12/05 04:00:40;;;;;;;0.10;0.10;;;4.90;99.90;;;;;;5065104;28;20899;-80
2022/12/05 04:03:14;;;;;;;0.10;0.10;;;4.90;99.90;;;;;;5065946;28;20227;-79
2022/12/05 04:05:55;;;;;;;0.10;0.10;;;4.90;99.90;;;;;;5065568;28;20678;-80
2022/12/05 04:08:35;;;;;;;0.10;0.10;;;4.90;99.90;;;;;;5067165;28;20187;-80
2022/12/05 04:11:06;;;;;;;0.10;0.10;;;4.80;99.90;;;;;;5067419;28;20184;-80
2022/12/05 04:13:45;;;;;;;0.10;0.10;;;4.70;99.90;;;;;;5069590;28;20190;-79
2022/12/05 04:19:13;;;;;;;0.10;0.10;;;4.80;99.90;;;;;;5071256;28;20185;-79
2022/12/05 04:21:57;;;;;;;0.00;0.00;;;4.80;99.90;;;;;;5069902;28;20204;-79
2022/12/05 04:27:20;;;;;;;0.10;0.10;;;4.80;99.90;;;;;;5069959;28;20279;-79
2022/12/05 04:30:07;;;;;;;0.10;0.10;;;4.80;99.90;;;;;;5069723;28;20654;-80
2022/12/05 04:32:40;;;;;;;0.10;0.10;;;4.80;99.90;;;;;;5069759;28;20184;-80
2022/12/05 04:35:14;;;;;;;0.00;0.00;;;4.40;99.90;;;;;;5068930;28;20210;-80
2022/12/05 04:37:44;;;;;;;0.10;0.10;;;4.10;99.90;;;;;;5068167;28;20345;-80
2022/12/05 04:40:43;;;;;;;0.10;0.10;;;4.00;99.90;;;;;;5068301;28;20637;-80
2022/12/05 04:43:11;;;;;;;0.10;0.10;;;4.20;99.90;;;;;;5068324;28;20188;-80
2022/12/05 04:45:39;;;;;;;0.10;0.10;;;4.40;99.90;;;;;;5067725;28;20337;-80
2022/12/05 04:48:12;;;;;;;0.10;0.10;;;4.50;99.90;;;;;;5084899;28;20372;-80
2022/12/05 04:50:40;;;;;;;0.10;0.10;;;4.60;99.90;;;;;;5070313;28;20193;-80
2022/12/05 04:53:07;;;;;;;0.10;0.10;;;4.60;99.90;;;;;;5068580;28;20668;-80
2022/12/05 04:55:38;;;;;;;0.10;0.10;;;4.60;99.90;;;;;;5068439;28;20224;-80
2022/12/05 04:58:17;;;;;;;0.10;0.10;;;4.60;99.90;;;;;;5065777;28;20211;-80
2022/12/05 05:01:02;;;;;;;0.10;0.10;;;4.20;99.90;;;;;;5067004;28;20263;-80
2022/12/05 05:03:41;;;;;;;0.00;0.00;;;4.40;99.90;;;;;;5067861;28;20295;-78
2022/12/05 05:06:09;;;;;;;0.10;0.10;;;4.50;99.90;;;;;;5067456;28;20737;-80
2022/12/05 05:08:35;;;;;;;0.10;0.10;;;4.70;99.90;;;;;;5068642;28;20280;-80
2022/12/05 05:11:12;;;;;;;0.10;0.10;;;4.80;99.90;;;;;;5067706;28;20683;-80
2022/12/05 05:13:37;;;;;;;0.10;0.10;;;4.80;99.90;;;;;;5067756;28;20558;-80
2022/12/05 05:16:04;;;;;;;0.10;0.10;;;4.90;99.90;;;;;;5068002;28;20212;-79
2022/12/05 05:18:29;;;;;;;0.00;0.00;;;4.90;99.90;;;;;;5068013;28;20202;-79
2022/12/05 05:20:55;;;;;;;0.00;0.00;;;4.90;99.90;;;;;;5068015;28;20185;-79
2022/12/05 05:23:20;;;;;;;0.10;0.10;;;4.90;99.90;;;;;;5068529;28;20519;-80
2022/12/05 05:25:54;;;;;;;0.10;0.10;;;5.00;99.90;;;;;;5067025;28;20208;-80
2022/12/05 05:28:21;;;;;;;0.10;0.10;;;5.00;99.90;;;;;;5066751;28;20199;-80
2022/12/05 05:30:47;;;;;;;0.10;0.10;;;5.00;99.90;;;;;;5067330;28;20266;-80
2022/12/05 05:33:12;;;;;;;0.07;0.07;;;5.00;99.90;;;;;;5084179;28;20226;-79
2022/12/05 05:35:38;;;;;;;0.10;0.10;;;5.00;99.90;;;;;;5067172;28;21134;-80
2022/12/05 05:38:04;;;;;;;0.00;0.00;;;4.90;99.90;;;;;;5067101;28;20297;-80
2022/12/05 05:40:29;;;;;;;0.10;0.10;;;4.90;99.90;;;;;;5067581;28;20207;-81
2022/12/05 05:42:55;;;;;;;0.10;0.10;;;4.90;99.90;;;;;;5063959;28;20191;-80
2022/12/05 05:45:21;;;;;;;0.10;0.10;;;4.90;99.90;;;;;;5068744;28;20223;-79
2022/12/05 05:47:49;;;;;;;0.10;0.10;;;4.90;99.90;;;;;;5067854;28;20877;-80
2022/12/05 05:50:16;;;;;;;0.10;0.10;;;4.80;99.90;;;;;;5068896;28;20192;-80
2022/12/05 05:52:41;;;;;;;0.10;0.10;;;4.70;99.90;;;;;;5069622;28;20675;-80
2022/12/05 05:55:08;;;;;;;0.10;0.10;;;4.70;99.90;;;;;;5068117;28;20197;-80
2022/12/05 05:57:34;;;;;;;0.10;0.10;;;4.70;99.90;;;;;;5066102;28;20216;-79
2022/12/05 06:00:01;;;;;;;0.10;0.10;;;4.70;99.90;;;;;;5067378;28;20184;-80
2022/12/05 06:02:32;;;;;;;0.10;0.10;;;4.70;99.90;;;;;;5068086;28;20236;-80
2022/12/05 06:04:57;;;;;;;0.10;0.10;;;4.70;99.90;;;;;;5068403;28;20215;-80
2022/12/05 06:07:23;;;;;;;0.03;0.03;;;4.80;99.90;;;;;;5068825;28;20209;-80
2022/12/05 06:09:48;;;;;;;0.10;0.10;;;4.80;99.90;;;;;;5072109;28;20187;-80
2022/12/05 06:12:14;;;;;;;0.10;0.10;;;4.70;99.90;;;;;;5069313;28;20262;-81
2022/12/05 06:14:39;;;;;;;0.10;0.10;;;4.70;99.90;;;;;;5071846;28;20204;-81
2022/12/05 06:17:05;;;;;;;0.10;0.10;;;4.90;99.90;;;;;;5065942;28;20270;-80
2022/12/05 06:19:31;;;;;;;0.10;0.10;;;4.90;99.90;;;;;;5066393;28;20192;-81
2022/12/05 06:21:56;;;;;;;0.03;0.03;;;5.00;99.90;;;;;;5063641;28;20195;-80
2022/12/05 06:24:22;;;;;;;0.10;0.10;;;4.90;99.90;;;;;;5068723;28;20185;-81
2022/12/05 06:26:47;;;;;;;0.10;0.10;;;4.90;99.90;;;;;;5069973;28;20215;-81
2022/12/05 06:29:13;;;;;;;0.10;0.10;;;4.90;99.90;;;;;;5070204;28;20209;-80
2022/12/05 06:31:40;;;;;;;0.00;0.00;;;5.00;99.90;;;;;;5068672;28;20192;-80
2022/12/05 06:34:06;;;;;;;0.10;0.10;;;4.90;99.90;;;;;;5066868;28;20296;-80
2022/12/05 06:36:32;;;;;;;0.10;0.10;;;5.00;99.90;;;;;;5067728;28;20282;-81
2022/12/05 06:38:58;;;;;;;0.10;0.10;;;4.90;99.90;;;;;;5068424;28;20202;-80
2022/12/05 06:41:26;;;;;;;0.00;0.00;;;4.90;99.90;;;;;;5067224;28;20187;-80
2022/12/05 06:43:55;;;;;;;0.07;0.07;;;4.90;99.90;;;;;;5068234;28;20193;-81
2022/12/05 06:46:22;;;;;;;0.10;0.10;;;4.90;99.90;;;;;;5067845;28;20323;-80
2022/12/05 06:48:48;;;;;;;0.10;0.10;;;4.80;99.90;;;;;;5067819;28;20214;-80
2022/12/05 06:51:15;;;;;;;0.10;0.10;;;4.90;99.90;;;;;;5069155;28;20200;-80
2022/12/05 06:53:42;;;;;;;0.10;0.10;;;4.90;99.90;;;;;;5067908;28;20202;-81
2022/12/05 06:56:13;;;;;;;0.10;0.10;;;4.90;99.90;;;;;;5066827;28;20212;-80
2022/12/05 06:58:40;;;;;;;0.10;0.10;;;4.90;99.90;;;;;;5066596;28;20188;-80
2022/12/05 07:04:00;;;;;;;0.00;0.00;;;4.90;99.90;;;;;;5068130;28;20197;-80
2022/12/05 07:06:26;;;;;;;0.10;0.10;;;4.90;99.90;;;;;;5066738;28;20212;-80
2022/12/05 07:08:52;;;;;;;0.00;0.00;;;4.90;99.90;;;;;;5069396;28;20192;-80
2022/12/05 07:11:17;;;;;;;0.10;0.10;;;5.00;99.90;;;;;;5067533;28;20217;-80
2022/12/05 07:13:43;;;;;;;0.10;0.10;;;4.90;99.90;;;;;;5031218;28;1059345;-80
2022/12/05 07:16:09;;;;;;;0.10;0.10;;;5.00;99.90;;;;;;5068298;28;20226;-80
2022/12/05 07:18:35;;;;;;;0.10;0.10;;;4.90;99.90;;;;;;5069008;28;20284;-80
2022/12/05 07:21:07;;;;;;;0.10;0.10;;;4.90;99.90;;;;;;5067029;28;20199;-80
2022/12/05 07:23:33;;;;;;;0.00;0.00;;;4.90;99.90;;;;;;5067735;28;20188;-80
2022/12/05 07:26:03;;;;;;;0.10;0.10;;;5.00;99.90;;;;;;5070215;28;20208;-81
2022/12/05 07:28:28;;;;;;;0.10;0.10;;;5.00;99.90;;;;;;5063215;28;20201;-82
2022/12/05 07:31:01;;;;;;;0.00;0.00;;;4.90;99.90;;;;;;5065673;28;20573;-81
2022/12/05 07:33:27;;;;;;;0.10;0.10;;;5.00;99.90;;;;;;5069399;28;20597;-82
2022/12/05 07:36:06;;;;;;;0.10;0.10;;;5.00;99.90;;;;;;5054112;28;20435;-82
2022/12/05 07:38:32;;;;;;;0.10;0.10;;;5.10;99.90;;;;;;5072482;28;20202;-82
2022/12/05 07:40:57;;;;;;;0.10;0.10;;;5.00;99.90;;;;;;5070432;28;20192;-81
2022/12/05 07:43:23;;;;;;;0.10;0.10;;;5.10;99.90;;;;;;5069210;28;20217;-82
2022/12/05 07:45:49;;;;;;;0.10;0.10;;;5.10;99.90;;;;;;5068416;28;20723;-82
2022/12/05 07:48:15;;;;;;;0.10;0.10;;;5.10;99.90;;;;;;5070322;28;20236;-82
2022/12/05 07:50:40;;;;;;;0.10;0.10;;;5.10;99.90;;;;;;5071503;28;20192;-82
2022/12/05 07:53:06;;;;;;;0.10;0.10;;;5.10;99.90;;;;;;5071433;28;20212;-82
2022/12/05 07:55:31;;;;;;;0.10;0.10;;;5.00;99.90;;;;;;5068709;28;20350;-81
2022/12/05 07:57:57;;;;;;;0.10;0.10;;;5.00;99.90;;;;;;5071306;28;20224;-82
2022/12/05 08:00:22;;;;;;;0.10;0.10;;;5.00;99.90;;;;;;5069586;28;20519;-83
2022/12/05 08:02:48;;;;;;;0.10;0.10;;;5.20;99.90;;;;;;5070115;28;20695;-82
2022/12/05 08:05:14;;;;;;;0.10;0.10;;;5.10;99.90;;;;;;5068873;28;20201;-82
2022/12/05 08:07:40;;;;;;;0.10;0.10;;;5.20;99.90;;;;;;5067664;28;20386;-81
2022/12/05 08:10:07;;;;;;;0.10;0.10;;;5.20;99.90;;;;;;5066860;28;20198;-82
2022/12/05 08:12:32;;;;;;;0.10;0.10;;;5.20;99.90;;;;;;5062899;28;20191;-79
2022/12/05 08:14:58;;;;;;;0.10;0.10;;;5.20;99.90;;;;;;5062553;28;20303;-80
2022/12/05 08:17:24;;;;;;;0.10;0.10;;;5.30;99.90;;;;;;5065259;28;20238;-80
2022/12/05 08:19:49;;;;;;;0.10;0.10;;;5.30;99.90;;;;;;5067511;28;20176;-80
2022/12/05 08:22:15;;;;;;;0.10;0.10;;;5.40;99.90;;;;;;5066499;28;20724;-80
2022/12/05 08:24:40;;;;;;;0.10;0.10;;;5.40;99.90;;;;;;5067636;28;20178;-80
2022/12/05 08:27:06;;;;;;;0.10;0.10;;;5.50;99.90;;;;;;5065501;28;20230;-80
2022/12/05 08:29:31;;;;;;;0.10;0.10;;;5.50;99.90;;;;;;5067379;28;20214;-80
2022/12/05 08:31:57;;;;;;;0.10;0.10;;;5.50;99.90;;;;;;5066986;28;20658;-79
2022/12/05 08:34:23;;;;;;;0.10;0.10;;;5.50;99.90;;;;;;5067731;28;20188;-80
2022/12/05 08:36:49;;;;;;;0.10;0.10;;;5.40;99.90;;;;;;5066203;28;20571;-80
2022/12/05 08:39:16;;;;;;;0.00;0.00;;;5.40;99.90;;;;;;5068200;28;20598;-80
2022/12/05 08:41:43;;;;;;;0.10;0.10;;;5.40;99.90;;;;;;5066156;28;20675;-80
2022/12/05 08:44:14;;;;;;;0.10;0.10;;;5.50;99.90;;;;;;5066122;28;20305;-80
2022/12/05 08:46:40;;;;;;;0.10;0.10;;;5.40;99.90;;;;;;5082989;28;20257;-79
2022/12/05 08:49:06;;;;;;;0.10;0.10;;;5.40;99.90;;;;;;5067411;28;20192;-80
2022/12/05 08:51:32;;;;;;;0.10;0.10;;;5.40;99.90;;;;;;5066109;28;20192;-80
2022/12/05 08:53:57;;;;;;;0.00;0.00;;;5.40;99.90;;;;;;5065469;28;20194;-80
2022/12/05 08:56:23;;;;;;;0.10;0.10;;;5.50;99.90;;;;;;5066087;28;20205;-80
2022/12/05 08:58:49;;;;;;;0.10;0.10;;;5.50;99.90;;;;;;5086080;28;20248;-80
2022/12/05 09:01:18;;;;;;;0.10;0.10;;;5.50;99.90;;;;;;5070005;28;20282;-80
2022/12/05 09:03:44;;;;;;;0.10;0.10;;;5.50;99.90;;;;;;5070883;28;20212;-80
2022/12/05 09:06:19;;;;;;;0.10;0.10;;;5.50;99.90;;;;;;5069516;28;20205;-80
2022/12/05 09:08:45;;;;;;;0.10;0.10;;;5.40;99.90;;;;;;5069623;28;20633;-80
2022/12/05 09:11:15;;;;;;;0.00;0.00;;;5.40;99.90;;;;;;5069137;28;20231;-80
2022/12/05 09:13:40;;;;;;;0.10;0.10;;;5.50;99.90;;;;;;5069886;28;20199;-79
2022/12/05 09:16:12;;;;;;;0.07;0.07;;;5.50;99.90;;;;;;5069898;28;20254;-80
2022/12/05 09:18:38;;;;;;;0.10;0.10;;;5.50;99.90;;;;;;5070354;28;20177;-80
2022/12/05 09:21:15;;;;;;;0.10;0.10;;;5.50;99.90;;;;;;5070676;28;20187;-80
2022/12/05 09:23:41;;;;;;;0.07;0.07;;;5.50;99.90;;;;;;5070376;28;20172;-81
2022/12/05 09:26:11;;;;;;;0.03;0.03;;;5.50;99.90;;;;;;5067286;28;20210;-80
2022/12/05 09:28:37;;;;;;;0.10;0.10;;;5.50;99.90;;;;;;5067775;28;20180;-80
2022/12/05 09:31:05;;;;;;;0.10;0.10;;;5.50;99.90;;;;;;5065512;28;20244;-80
2022/12/05 09:33:33;;;;;;;0.00;0.00;;;5.50;99.90;;;;;;5067941;28;20187;-81
2022/12/05 09:36:27;;;;;;;0.10;0.10;;;5.60;99.90;;;;;;5070209;28;20224;-80
2022/12/05 09:38:54;;;;;;;0.10;0.10;;;5.60;99.90;;;;;;5065197;28;20237;-82
2022/12/05 09:42:17;;;;;;;0.03;0.03;;;5.60;99.90;;;;;;5084711;28;20180;-81
2022/12/05 09:44:51;;;;;;;0.10;0.10;;;5.60;99.90;;;;;;5017103;28;20773;-81
2022/12/05 09:47:27;;;;;;;0.10;0.10;;;5.70;99.90;;;;;;4993680;28;20793;-82
2022/12/05 09:49:58;;;;;;;0.10;0.10;;;5.70;99.90;;;;;;5056308;28;20220;-81
2022/12/05 09:52:34;;;;;;;0.10;0.10;;;5.70;99.90;;;;;;5088643;28;20675;-81
2022/12/05 09:55:09;;;;;;;0.10;0.10;;;5.70;99.90;;;;;;5072228;28;20185;-81
2022/12/05 09:57:39;;;;;;;0.10;0.10;;;5.70;99.90;;;;;;5070423;28;20197;-82
2022/12/05 10:00:06;;;;;;;0.10;0.10;;;5.70;99.90;;;;;;5069500;28;21077;-82
2022/12/05 10:02:50;;;;;;;0.10;0.10;;;5.70;99.90;;;;;;5071466;28;20182;-82
2022/12/05 10:05:20;;;;;;;0.10;0.10;;;5.60;99.90;;;;;;5069764;28;20185;-82
2022/12/05 10:07:55;;;;;;;0.10;0.10;;;5.70;99.90;;;;;;5070106;28;20189;-82
2022/12/05 10:10:40;;;;;;;0.10;0.10;;;5.70;99.90;;;;;;5071574;28;20207;-81
2022/12/05 10:13:09;;;;;;;0.10;0.10;;;5.70;99.90;;;;;;5068654;28;20210;-81
2022/12/05 10:15:37;;;;;;;0.10;0.10;;;5.70;99.90;;;;;;5070363;28;20233;-82
2022/12/05 10:18:31;;;;;;;0.10;0.10;;;5.60;99.90;;;;;;5086846;28;20205;-82
2022/12/05 10:21:12;;;;;;;0.00;0.00;;;5.80;99.90;;;;;;5070020;28;20185;-82
2022/12/05 10:23:52;;;;;;;0.00;0.00;;;5.80;99.90;;;;;;5074073;28;20195;-81
2022/12/05 10:26:19;;;;;;;0.10;0.10;;;5.80;99.90;;;;;;5073653;28;20311;-81
2022/12/05 10:29:16;;;;;;;0.10;0.10;;;5.80;99.90;;;;;;5090295;28;20188;-81
2022/12/05 10:32:02;;;;;;;0.10;0.10;;;5.90;99.90;;;;;;5066590;28;20541;-84
2022/12/05 10:34:37;;;;;;;0.10;0.10;;;6.00;99.90;;;;;;5066587;28;20177;-84
2022/12/05 10:37:09;;;;;;;0.00;0.00;;;6.00;99.90;;;;;;5066974;28;20219;-84
2022/12/05 10:39:36;;;;;;;0.10;0.10;;;6.10;99.90;;;;;;5068101;28;20181;-81
2022/12/05 10:42:02;;;;;;;0.10;0.10;;;6.10;99.90;;;;;;5067603;28;20200;-81
2022/12/05 10:44:28;;;;;;;0.00;0.00;;;6.10;99.90;;;;;;5069770;28;20210;-80
2022/12/05 10:46:53;;;;;;;0.10;0.10;;;6.20;99.90;;;;;;5067643;28;20811;-80
2022/12/05 10:49:20;;;;;;;0.00;0.00;;;6.10;99.90;;;;;;5070970;28;20185;-81
2022/12/05 10:51:47;;;;;;;0.10;0.10;;;6.10;99.90;;;;;;5087230;28;20185;-81
2022/12/05 10:54:38;;;;;;;0.10;0.10;;;6.10;99.90;;;;;;5068643;28;20185;-81
2022/12/05 10:57:31;;;;;;;0.10;0.10;;;6.10;99.90;;;;;;5057768;28;20236;-81
2022/12/05 11:00:09;;;;;;;0.10;0.10;;;6.10;99.90;;;;;;5086554;28;20185;-81
2022/12/05 11:02:36;;;;;;;0.10;0.10;;;6.10;99.90;;;;;;5069768;28;20631;-81
2022/12/05 11:05:03;;;;;;;0.10;0.10;;;6.10;99.90;;;;;;5069053;28;20276;-81
2022/12/05 11:07:42;;;;;;;0.10;0.10;;;6.10;99.90;;;;;;5068505;28;20184;-81
2022/12/05 11:10:26;;;;;;;0.10;0.10;;;6.10;99.90;;;;;;5066248;28;20179;-81
2022/12/05 11:12:51;;;;;;;0.07;0.07;;;6.20;99.90;;;;;;5067954;28;20188;-82
2022/12/05 11:15:24;;;;;;;0.10;0.10;;;6.10;99.90;;;;;;5085090;28;20207;-81
2022/12/05 11:17:51;;;;;;;0.10;0.10;;;6.10;99.90;;;;;;5070186;28;20197;-80
2022/12/05 11:20:17;;;;;;;0.00;0.00;;;6.10;99.90;;;;;;5068476;28;20177;-81
2022/12/05 11:22:48;;;;;;;0.10;0.10;;;6.10;99.90;;;;;;5068228;28;20191;-81
2022/12/05 11:25:28;;;;;;;0.10;0.10;;;6.10;99.90;;;;;;5068698;28;20247;-82
2022/12/05 11:27:59;;;;;;;0.03;0.03;;;6.10;99.90;;;;;;5069568;28;20208;-80
2022/12/05 11:30:27;;;;;;;0.10;0.10;;;6.10;99.90;;;;;;5066223;28;20220;-81
2022/12/05 11:33:11;;;;;;;0.07;0.07;;;6.10;99.90;;;;;;5070240;28;20556;-80
2022/12/05 11:35:37;;;;;;;0.10;0.10;;;6.10;99.90;;;;;;5068108;28;20205;-80
2022/12/05 11:38:05;;;;;;;0.10;0.10;;;6.10;99.90;;;;;;5066768;28;20590;-85
2022/12/05 11:40:33;;;;;;;0.00;0.00;;;6.10;99.90;;;;;;5065652;28;20561;-82
2022/12/05 11:43:47;;;;;;;0.10;0.10;;;6.10;99.90;;;;;;5068790;28;20207;-82
2022/12/05 11:46:25;;;;;;;0.10;0.10;;;6.20;99.90;;;;;;5051727;28;20212;-82
2022/12/05 11:48:54;;;;;;;0.10;0.10;;;6.20;99.90;;;;;;5069911;28;20218;-81
2022/12/05 11:51:39;;;;;;;0.10;0.10;;;6.30;99.90;;;;;;5069144;28;20264;-82
2022/12/05 11:54:24;;;;;;;0.10;0.10;;;6.30;99.90;;;;;;5069468;28;20185;-80
2022/12/05 11:57:10;;;;;;;0.10;0.10;;;6.20;99.90;;;;;;5069466;28;20575;-82
2022/12/05 12:00:01;;;;;;;0.10;0.10;;;6.10;99.90;;;;;;5069582;28;20242;-82
2022/12/05 12:02:54;;;;;;;0.10;0.10;;;6.00;99.90;;;;;;5067484;28;20253;-81
2022/12/05 12:05:33;;;;;;;0.10;0.10;;;6.10;99.90;;;;;;5068382;28;20177;-82
2022/12/05 12:08:20;;;;;;;0.10;0.10;;;6.10;99.90;;;;;;5068669;28;20257;-82
2022/12/05 12:10:49;;;;;;;0.10;0.10;;;6.10;99.90;;;;;;5069152;28;20181;-81
2022/12/05 12:13:49;;;;;;;0.10;0.10;;;6.20;99.90;;;;;;5068729;28;20200;-82
2022/12/05 12:16:36;;;;;;;0.10;0.10;;;6.20;99.90;;;;;;5069121;28;20773;-82
2022/12/05 12:19:25;;;;;;;0.10;0.10;;;6.20;99.90;;;;;;5070954;28;20268;-82
2022/12/05 12:21:54;;;;;;;0.10;0.10;;;6.30;99.90;;;;;;5067800;28;20183;-82
2022/12/05 12:24:47;;;;;;;0.10;0.10;;;6.40;99.90;;;;;;5068096;28;20217;-82
2022/12/05 12:27:39;;;;;;;0.10;0.10;;;6.40;99.90;;;;;;5068754;28;20220;-82
2022/12/05 12:30:21;;;;;;;0.10;0.10;;;6.40;99.90;;;;;;5067633;28;20281;-82
2022/12/05 12:32:52;;;;;;;0.10;0.10;;;6.40;99.90;;;;;;5070677;28;20215;-82
2022/12/05 12:35:29;;;;;;;0.10;0.10;;;6.30;99.90;;;;;;5073432;28;20174;-82
2022/12/05 12:38:19;;;;;;;0.10;0.10;;;6.30;99.90;;;;;;5088211;28;20223;-81
2022/12/05 12:40:47;;;;;;;0.10;0.10;;;6.20;99.90;;;;;;5071851;28;20715;-83
2022/12/05 12:43:33;;;;;;;0.10;0.10;;;6.30;99.90;;;;;;5073053;28;20189;-82
2022/12/05 12:46:51;;;;;;;0.10;0.10;;;6.40;99.90;;;;;;5071901;28;20210;-84
2022/12/05 12:49:39;;;;;;;0.10;0.10;;;6.50;99.90;;;;;;5047515;28;21335;-84
2022/12/05 12:52:17;;;;;;;0.10;0.10;;;6.50;99.90;;;;;;5071355;28;20608;-83
2022/12/05 12:54:47;;;;;;;0.10;0.10;;;6.20;99.90;;;;;;5074630;28;20177;-84
2022/12/05 12:57:21;;;;;;;0.10;0.10;;;6.10;99.90;;;;;;5091324;28;20807;-84
2022/12/05 13:00:11;;;;;;;0.10;0.10;;;6.30;99.90;;;;;;5072885;28;20188;-83
2022/12/05 13:03:17;;;;;;;0.10;0.10;;;6.30;99.90;;;;;;5071509;28;20588;-83
2022/12/05 13:05:55;;;;;;;0.10;0.10;;;6.40;99.90;;;;;;5051498;28;20206;-83
2022/12/05 13:08:54;;;;;;;0.03;0.03;;;6.40;99.90;;;;;;5086257;28;20196;-83
2022/12/05 13:11:21;;;;;;;0.10;0.10;;;6.50;99.90;;;;;;5069978;28;20205;-84
2022/12/05 13:13:59;;;;;;;0.10;0.10;;;6.50;99.90;;;;;;5071773;28;20655;-84
2022/12/05 13:16:39;;;;;;;0.10;0.10;;;6.50;99.90;;;;;;5088299;28;20280;-83
2022/12/05 13:19:05;;;;;;;0.10;0.10;;;6.50;99.90;;;;;;5071947;28;20189;-83
2022/12/05 13:21:31;;;;;;;0.10;0.10;;;6.50;99.90;;;;;;5074533;28;20954;-84
2022/12/05 13:24:02;;;;;;;0.10;0.10;;;6.50;99.90;;;;;;5073431;28;20189;-82
2022/12/05 13:26:29;;;;;;;0.10;0.10;;;6.50;99.90;;;;;;5072193;28;20197;-83
2022/12/05 13:28:58;;;;;;;0.10;0.10;;;6.50;99.90;;;;;;5071889;28;20189;-83
2022/12/05 13:31:53;;;;;;;0.10;0.10;;;6.50;99.90;;;;;;5068933;28;20227;-83